createdAt,value
2023-03-29T00:00:06.215Z,10.30
2023-03-29T00:01:06.236Z,10.35
2023-03-29T00:02:06.246Z,10.39
2023-03-29T00:03:06.376Z,10.40
2023-03-29T00:04:06.447Z,10.41
2023-03-29T00:05:06.209Z,10.42
2023-03-29T00:06:06.244Z,10.44
2023-03-29T00:07:06.208Z,10.46
2023-03-29T00:08:06.217Z,10.50
2023-03-29T00:09:06.354Z,10.56
2023-03-29T00:10:06.245Z,10.60
2023-03-29T00:11:06.235Z,10.61
2023-03-29T00:12:06.229Z,10.62
2023-03-29T00:13:06.269Z,10.61
2023-03-29T00:14:06.316Z,10.58
2023-03-29T00:15:06.242Z,10.55
2023-03-29T00:16:06.241Z,10.53
2023-03-29T00:18:06.307Z,10.52
2023-03-29T00:19:06.272Z,10.51
2023-03-29T00:20:06.275Z,10.52
2023-03-29T00:21:06.278Z,10.56
2023-03-29T00:22:06.282Z,10.60
2023-03-29T00:23:06.301Z,10.64
2023-03-29T00:24:06.346Z,10.67
2023-03-29T00:25:06.277Z,10.70
2023-03-29T00:27:06.275Z,10.69
2023-03-29T00:28:06.300Z,10.67
2023-03-29T00:29:06.334Z,10.38
2023-03-29T00:30:06.281Z,10.31
2023-03-29T00:31:06.333Z,10.25
2023-03-29T00:32:06.279Z,10.26
2023-03-29T00:33:06.307Z,10.29
2023-03-29T00:34:06.363Z,10.31
2023-03-29T00:35:06.315Z,10.38
2023-03-29T00:36:06.377Z,10.35
2023-03-29T00:38:06.304Z,10.30
2023-03-29T00:39:06.359Z,10.26
2023-03-29T00:40:06.334Z,10.08
2023-03-29T00:41:06.310Z,10.02
2023-03-29T00:42:06.310Z,10.07
2023-03-29T00:43:06.312Z,10.11
2023-03-29T00:44:06.349Z,10.19
2023-03-29T00:45:06.341Z,10.27
2023-03-29T00:46:06.336Z,10.29
2023-03-29T00:47:06.318Z,10.32
2023-03-29T00:48:06.413Z,10.22
2023-03-29T00:49:06.452Z,10.28
2023-03-29T00:50:06.939Z,10.33
2023-03-29T00:51:08.809Z,10.39
2023-03-29T00:52:06.378Z,10.32
2023-03-29T00:53:06.371Z,10.15
2023-03-29T00:54:06.381Z,10.12
2023-03-29T00:55:06.346Z,10.09
2023-03-29T00:57:06.441Z,10.06
2023-03-29T00:58:06.400Z,10.04
2023-03-29T00:59:06.376Z,10.11
2023-03-29T01:00:06.396Z,10.20
2023-03-29T01:01:06.390Z,10.22
2023-03-29T01:02:06.467Z,10.23
2023-03-29T01:04:06.422Z,10.30
2023-03-29T01:05:06.417Z,10.32
2023-03-29T01:06:06.405Z,10.38
2023-03-29T01:07:06.579Z,10.45
2023-03-29T01:08:06.380Z,10.50
2023-03-29T01:09:06.430Z,10.56
2023-03-29T01:10:06.408Z,10.63
2023-03-29T01:11:06.396Z,10.67
2023-03-29T01:12:06.418Z,10.70
2023-03-29T01:13:06.398Z,10.68
2023-03-29T01:14:06.421Z,10.71
2023-03-29T01:15:06.429Z,10.64
2023-03-29T01:16:06.459Z,10.61
2023-03-29T01:17:06.427Z,10.57
2023-03-29T01:18:06.455Z,10.62
2023-03-29T01:19:06.431Z,10.68
2023-03-29T01:20:06.459Z,10.73
2023-03-29T01:21:06.403Z,10.77
2023-03-29T01:22:06.424Z,10.70
2023-03-29T01:23:06.439Z,10.61
2023-03-29T01:24:06.423Z,10.63
2023-03-29T01:25:06.427Z,10.68
2023-03-29T01:26:06.461Z,10.73
2023-03-29T01:27:06.457Z,10.80
2023-03-29T01:28:06.473Z,10.87
2023-03-29T01:29:06.433Z,10.94
2023-03-29T01:30:06.447Z,10.99
2023-03-29T01:31:06.457Z,11.03
2023-03-29T01:32:06.493Z,10.91
2023-03-29T01:34:06.446Z,10.94
2023-03-29T01:35:06.463Z,11.00
2023-03-29T01:36:06.479Z,10.99
2023-03-29T01:38:06.491Z,11.03
2023-03-29T01:39:06.458Z,11.07
2023-03-29T01:40:06.458Z,11.12
2023-03-29T01:41:06.472Z,11.17
2023-03-29T01:42:06.486Z,11.22
2023-03-29T01:43:06.526Z,11.26
2023-03-29T01:44:06.506Z,11.28
2023-03-29T01:45:06.497Z,11.08
2023-03-29T01:46:06.486Z,11.04
2023-03-29T01:47:06.513Z,10.98
2023-03-29T01:48:06.516Z,10.96
2023-03-29T01:49:06.479Z,10.94
2023-03-29T01:50:06.548Z,10.90
2023-03-29T01:51:06.473Z,10.91
2023-03-29T01:52:06.492Z,10.83
2023-03-29T01:53:06.517Z,10.82
2023-03-29T01:55:06.496Z,10.80
2023-03-29T01:56:06.481Z,10.79
2023-03-29T01:57:06.532Z,10.81
2023-03-29T01:58:06.529Z,10.75
2023-03-29T01:59:06.500Z,10.73
2023-03-29T02:00:06.524Z,10.76
2023-03-29T02:01:06.560Z,10.80
2023-03-29T02:02:06.561Z,10.85
2023-03-29T02:03:06.577Z,10.89
2023-03-29T02:04:06.514Z,10.93
2023-03-29T02:05:06.545Z,10.95
2023-03-29T02:06:06.542Z,10.99
2023-03-29T02:07:06.532Z,10.96
2023-03-29T02:08:06.518Z,10.94
2023-03-29T02:09:06.524Z,10.88
2023-03-29T02:10:06.531Z,10.85
2023-03-29T02:11:06.523Z,10.80
2023-03-29T02:12:06.550Z,10.79
2023-03-29T02:13:06.568Z,10.76
2023-03-29T02:14:06.550Z,10.75
2023-03-29T02:15:06.567Z,10.76
2023-03-29T02:16:06.596Z,10.80
2023-03-29T02:17:06.567Z,10.85
2023-03-29T02:18:06.783Z,10.89
2023-03-29T02:19:06.577Z,10.95
2023-03-29T02:20:06.555Z,10.99
2023-03-29T02:21:06.593Z,11.00
2023-03-29T02:22:06.559Z,10.99
2023-03-29T02:23:06.573Z,11.00
2023-03-29T02:24:06.550Z,11.02
2023-03-29T02:25:06.557Z,11.01
2023-03-29T02:26:06.632Z,11.02
2023-03-29T02:27:06.591Z,11.03
2023-03-29T02:28:06.581Z,11.05
2023-03-29T02:29:06.630Z,11.06
2023-03-29T02:30:06.587Z,11.07
2023-03-29T02:33:06.665Z,11.05
2023-03-29T02:35:06.638Z,11.01
2023-03-29T02:36:06.625Z,11.02
2023-03-29T02:37:06.642Z,11.00
2023-03-29T02:38:06.619Z,10.96
2023-03-29T02:39:06.630Z,10.93
2023-03-29T02:40:06.592Z,10.91
2023-03-29T02:41:06.631Z,10.92
2023-03-29T02:42:06.608Z,10.96
2023-03-29T02:44:06.618Z,10.95
2023-03-29T02:45:06.607Z,10.93
2023-03-29T02:47:06.623Z,10.91
2023-03-29T02:51:06.681Z,10.92
2023-03-29T02:52:06.663Z,10.93
2023-03-29T02:53:06.675Z,10.96
2023-03-29T02:54:06.676Z,10.95
2023-03-29T02:56:06.649Z,10.98
2023-03-29T02:57:06.713Z,10.99
2023-03-29T02:58:06.655Z,10.98
2023-03-29T02:59:06.694Z,10.94
2023-03-29T03:00:06.703Z,10.93
2023-03-29T03:01:06.665Z,10.91
2023-03-29T03:02:06.706Z,10.90
2023-03-29T03:03:06.691Z,10.88
2023-03-29T03:04:06.759Z,10.90
2023-03-29T03:05:06.680Z,10.89
2023-03-29T03:07:06.675Z,10.87
2023-03-29T03:08:06.679Z,10.88
2023-03-29T03:11:06.725Z,10.86
2023-03-29T03:12:06.721Z,10.85
2023-03-29T03:13:06.694Z,10.84
2023-03-29T03:14:06.698Z,10.82
2023-03-29T03:16:06.713Z,10.83
2023-03-29T03:17:06.713Z,10.84
2023-03-29T03:18:06.753Z,10.85
2023-03-29T03:19:06.717Z,10.82
2023-03-29T03:20:06.719Z,10.79
2023-03-29T03:21:06.682Z,10.73
2023-03-29T03:22:06.702Z,10.67
2023-03-29T03:23:06.745Z,10.65
2023-03-29T03:24:06.703Z,10.60
2023-03-29T03:25:06.703Z,10.57
2023-03-29T03:27:06.701Z,10.56
2023-03-29T03:28:06.785Z,10.59
2023-03-29T03:29:06.711Z,10.62
2023-03-29T03:30:06.717Z,10.65
2023-03-29T03:31:06.734Z,10.66
2023-03-29T03:32:06.844Z,10.68
2023-03-29T03:33:06.841Z,10.69
2023-03-29T03:34:06.741Z,10.63
2023-03-29T03:35:06.736Z,10.58
2023-03-29T03:36:06.826Z,10.57
2023-03-29T03:37:06.729Z,10.56
2023-03-29T03:38:06.739Z,10.54
2023-03-29T03:39:06.751Z,10.50
2023-03-29T03:40:06.750Z,10.51
2023-03-29T03:41:06.755Z,10.54
2023-03-29T03:42:08.382Z,10.59
2023-03-29T03:43:06.793Z,10.64
2023-03-29T03:45:06.755Z,10.65
2023-03-29T03:46:06.825Z,10.60
2023-03-29T03:50:06.801Z,10.59
2023-03-29T03:53:06.780Z,10.57
2023-03-29T03:54:06.806Z,10.56
2023-03-29T03:55:06.783Z,10.49
2023-03-29T03:56:06.812Z,10.38
2023-03-29T03:57:06.876Z,10.19
2023-03-29T03:58:06.801Z,10.15
2023-03-29T03:59:06.824Z,10.13
2023-03-29T04:00:06.796Z,10.12
2023-03-29T04:01:06.824Z,10.17
2023-03-29T04:02:06.914Z,10.21
2023-03-29T04:03:06.965Z,10.12
2023-03-29T04:04:06.886Z,10.10
2023-03-29T04:05:06.841Z,10.13
2023-03-29T04:06:06.839Z,10.17
2023-03-29T04:07:06.833Z,10.21
2023-03-29T04:08:06.849Z,10.24
2023-03-29T04:09:06.865Z,10.23
2023-03-29T04:10:06.827Z,10.10
2023-03-29T04:11:06.837Z,9.97
2023-03-29T04:13:06.859Z,10.02
2023-03-29T04:14:06.818Z,10.06
2023-03-29T04:15:06.847Z,10.07
2023-03-29T04:16:06.992Z,10.11
2023-03-29T04:17:06.870Z,10.15
2023-03-29T04:18:06.979Z,10.17
2023-03-29T04:19:06.833Z,10.23
2023-03-29T04:20:06.869Z,10.30
2023-03-29T04:21:06.843Z,10.34
2023-03-29T04:22:06.846Z,10.31
2023-03-29T04:23:06.882Z,10.35
2023-03-29T04:24:06.879Z,10.36
2023-03-29T04:25:06.880Z,10.38
2023-03-29T04:27:06.905Z,10.28
2023-03-29T04:28:06.887Z,10.30
2023-03-29T04:29:06.889Z,10.36
2023-03-29T04:30:06.886Z,10.41
2023-03-29T04:31:06.908Z,10.36
2023-03-29T04:32:06.894Z,10.41
2023-03-29T04:33:06.945Z,10.45
2023-03-29T04:34:06.901Z,10.49
2023-03-29T04:35:06.933Z,10.50
2023-03-29T04:36:06.923Z,10.53
2023-03-29T04:37:06.887Z,10.54
2023-03-29T04:38:06.912Z,10.38
2023-03-29T04:39:06.911Z,10.26
2023-03-29T04:40:06.957Z,10.21
2023-03-29T04:42:06.928Z,10.27
2023-03-29T04:43:06.922Z,10.34
2023-03-29T04:44:06.936Z,10.42
2023-03-29T04:45:07.154Z,10.52
2023-03-29T04:46:06.982Z,10.59
2023-03-29T04:47:06.906Z,10.66
2023-03-29T04:48:07.114Z,10.71
2023-03-29T04:49:06.936Z,10.77
2023-03-29T04:50:06.942Z,10.81
2023-03-29T04:51:06.955Z,10.86
2023-03-29T04:52:06.946Z,10.89
2023-03-29T04:53:06.964Z,10.91
2023-03-29T04:54:06.968Z,10.92
2023-03-29T04:55:06.925Z,10.94
2023-03-29T04:56:06.962Z,10.92
2023-03-29T04:57:07.007Z,10.91
2023-03-29T04:58:06.957Z,10.90
2023-03-29T05:00:06.960Z,10.88
2023-03-29T05:01:07.005Z,10.89
2023-03-29T05:04:06.997Z,10.87
2023-03-29T05:05:06.985Z,10.86
2023-03-29T05:06:07.318Z,10.84
2023-03-29T05:07:06.977Z,10.81
2023-03-29T05:08:06.952Z,10.66
2023-03-29T05:09:06.970Z,10.65
2023-03-29T05:11:06.989Z,10.59
2023-03-29T05:12:07.000Z,10.53
2023-03-29T05:13:06.997Z,10.55
2023-03-29T05:14:07.194Z,10.56
2023-03-29T05:15:07.123Z,10.62
2023-03-29T05:16:07.151Z,10.65
2023-03-29T05:17:07.174Z,10.68
2023-03-29T05:18:07.203Z,10.69
2023-03-29T05:19:07.156Z,10.73
2023-03-29T05:21:07.175Z,10.78
2023-03-29T05:22:07.022Z,10.84
2023-03-29T05:23:07.022Z,10.89
2023-03-29T05:24:07.060Z,10.99
2023-03-29T05:25:06.997Z,11.02
2023-03-29T05:26:07.043Z,10.98
2023-03-29T05:27:07.075Z,11.01
2023-03-29T05:28:07.020Z,11.05
2023-03-29T05:29:07.050Z,11.09
2023-03-29T05:30:07.051Z,11.15
2023-03-29T05:31:07.075Z,11.22
2023-03-29T05:32:07.207Z,11.29
2023-03-29T05:33:07.116Z,11.35
2023-03-29T05:38:07.029Z,11.41
2023-03-29T05:39:07.116Z,11.45
2023-03-29T05:40:07.044Z,11.48
2023-03-29T05:41:07.038Z,11.51
2023-03-29T05:42:07.078Z,11.53
2023-03-29T05:43:07.064Z,11.55
2023-03-29T05:44:07.175Z,11.57
2023-03-29T05:46:07.137Z,11.58
2023-03-29T05:48:07.135Z,11.56
2023-03-29T05:51:07.192Z,11.57
2023-03-29T05:52:07.138Z,11.56
2023-03-29T05:53:07.092Z,11.60
2023-03-29T05:54:07.103Z,11.63
2023-03-29T05:55:07.121Z,11.66
2023-03-29T05:56:07.112Z,11.68
2023-03-29T05:57:07.157Z,11.70
2023-03-29T05:58:07.117Z,11.67
2023-03-29T05:59:07.124Z,11.68
2023-03-29T06:00:07.173Z,11.71
2023-03-29T06:01:07.148Z,11.73
2023-03-29T06:03:17.590Z,11.74
2023-03-29T06:04:07.153Z,11.75
2023-03-29T06:05:07.218Z,11.68
2023-03-29T06:06:07.128Z,11.64
2023-03-29T06:07:07.151Z,11.66
2023-03-29T06:08:07.104Z,11.68
2023-03-29T06:09:07.111Z,11.71
2023-03-29T06:10:07.146Z,11.73
2023-03-29T06:11:07.356Z,11.75
2023-03-29T06:13:07.146Z,11.74
2023-03-29T06:14:07.149Z,11.69
2023-03-29T06:15:07.168Z,11.70
2023-03-29T06:18:07.254Z,11.64
2023-03-29T06:19:07.170Z,11.66
2023-03-29T06:20:07.177Z,11.69
2023-03-29T06:21:07.167Z,11.74
2023-03-29T06:22:07.202Z,11.76
2023-03-29T06:23:07.159Z,11.83
2023-03-29T06:24:07.170Z,11.88
2023-03-29T06:25:07.212Z,11.90
2023-03-29T06:26:07.207Z,11.96
2023-03-29T06:27:07.176Z,12.00
2023-03-29T06:28:07.148Z,12.02
2023-03-29T06:29:07.198Z,12.01
2023-03-29T06:30:07.183Z,12.03
2023-03-29T06:31:07.379Z,12.06
2023-03-29T06:32:07.167Z,11.97
2023-03-29T06:33:07.276Z,11.85
2023-03-29T06:34:07.172Z,11.61
2023-03-29T06:35:07.204Z,11.51
2023-03-29T06:36:07.236Z,11.48
2023-03-29T06:37:07.221Z,11.34
2023-03-29T06:38:07.223Z,11.26
2023-03-29T06:39:07.191Z,11.21
2023-03-29T06:40:07.287Z,11.19
2023-03-29T06:41:07.245Z,10.98
2023-03-29T06:42:20.005Z,10.94
2023-03-29T06:43:07.275Z,10.93
2023-03-29T06:44:07.239Z,10.90
2023-03-29T06:45:07.230Z,10.78
2023-03-29T06:46:07.264Z,10.59
2023-03-29T06:47:07.217Z,10.36
2023-03-29T06:48:07.300Z,10.20
2023-03-29T06:49:07.253Z,10.26
2023-03-29T06:50:07.210Z,10.39
2023-03-29T06:51:07.255Z,10.36
2023-03-29T06:52:07.269Z,10.33
2023-03-29T06:54:07.262Z,10.42
2023-03-29T06:55:07.260Z,10.53
2023-03-29T06:56:07.235Z,10.65
2023-03-29T06:57:07.377Z,10.73
2023-03-29T06:58:07.299Z,10.81
2023-03-29T06:59:07.286Z,10.75
2023-03-29T07:00:07.260Z,10.72
2023-03-29T07:01:07.255Z,10.69
2023-03-29T07:02:07.355Z,10.57
2023-03-29T07:03:07.382Z,10.53
2023-03-29T07:04:07.265Z,10.37
2023-03-29T07:05:07.239Z,10.30
2023-03-29T07:06:07.250Z,10.32
2023-03-29T07:07:07.289Z,10.31
2023-03-29T07:08:07.289Z,10.45
2023-03-29T07:09:07.277Z,10.52
2023-03-29T07:10:07.308Z,10.61
2023-03-29T07:11:07.282Z,10.62
2023-03-29T07:12:07.306Z,10.55
2023-03-29T07:13:07.329Z,10.62
2023-03-29T07:14:07.321Z,10.79
2023-03-29T07:15:07.287Z,10.82
2023-03-29T07:16:07.334Z,10.87
2023-03-29T07:17:07.278Z,11.01
2023-03-29T07:18:07.378Z,11.16
2023-03-29T07:19:07.329Z,11.31
2023-03-29T07:20:07.311Z,11.44
2023-03-29T07:21:07.328Z,11.58
2023-03-29T07:22:07.299Z,11.66
2023-03-29T07:23:07.366Z,11.73
2023-03-29T07:24:07.328Z,11.84
2023-03-29T07:25:07.309Z,11.86
2023-03-29T07:26:07.302Z,11.84
2023-03-29T07:27:07.322Z,11.88
2023-03-29T07:28:07.350Z,11.93
2023-03-29T07:29:07.353Z,11.98
2023-03-29T07:30:07.333Z,12.07
2023-03-29T07:31:07.342Z,12.14
2023-03-29T07:32:07.365Z,12.20
2023-03-29T07:33:07.439Z,12.26
2023-03-29T07:34:07.356Z,12.33
2023-03-29T07:35:07.364Z,12.35
2023-03-29T07:36:07.414Z,12.39
2023-03-29T07:37:07.381Z,12.43
2023-03-29T07:38:07.329Z,12.47
2023-03-29T07:39:07.332Z,12.50
2023-03-29T07:40:07.358Z,12.53
2023-03-29T07:41:07.391Z,12.55
2023-03-29T07:42:07.360Z,12.58
2023-03-29T07:43:07.348Z,12.62
2023-03-29T07:44:07.360Z,12.63
2023-03-29T07:47:07.359Z,12.60
2023-03-29T07:48:07.439Z,12.61
2023-03-29T07:49:07.396Z,12.60
2023-03-29T07:50:07.377Z,12.58
2023-03-29T07:51:07.359Z,12.47
2023-03-29T07:52:07.452Z,12.45
2023-03-29T07:53:07.384Z,12.47
2023-03-29T07:55:07.452Z,12.50
2023-03-29T07:56:07.388Z,12.55
2023-03-29T07:57:07.441Z,12.60
2023-03-29T07:58:07.412Z,12.67
2023-03-29T07:59:07.421Z,12.72
2023-03-29T08:00:07.396Z,12.73
2023-03-29T08:01:07.441Z,12.79
2023-03-29T08:02:07.385Z,12.81
2023-03-29T08:03:07.597Z,12.72
2023-03-29T08:04:07.545Z,12.71
2023-03-29T08:05:07.423Z,12.59
2023-03-29T08:06:07.421Z,12.49
2023-03-29T08:07:07.431Z,12.51
2023-03-29T08:08:07.409Z,12.52
2023-03-29T08:09:07.409Z,12.55
2023-03-29T08:10:07.403Z,12.59
2023-03-29T08:11:08.533Z,12.66
2023-03-29T08:12:07.439Z,12.57
2023-03-29T08:13:07.482Z,12.58
2023-03-29T08:14:07.476Z,12.62
2023-03-29T08:15:07.474Z,12.69
2023-03-29T08:16:07.443Z,12.80
2023-03-29T08:17:07.589Z,12.92
2023-03-29T08:18:07.630Z,12.99
2023-03-29T08:19:07.462Z,13.07
2023-03-29T08:20:07.449Z,13.14
2023-03-29T08:21:07.477Z,13.20
2023-03-29T08:23:07.463Z,13.10
2023-03-29T08:24:07.456Z,13.02
2023-03-29T08:26:07.504Z,12.80
2023-03-29T08:27:07.506Z,12.65
2023-03-29T08:28:07.502Z,12.59
2023-03-29T08:29:07.461Z,12.46
2023-03-29T08:30:07.494Z,12.28
2023-03-29T08:31:07.532Z,12.23
2023-03-29T08:32:07.490Z,12.03
2023-03-29T08:33:07.518Z,11.99
2023-03-29T08:34:07.505Z,12.01
2023-03-29T08:35:07.507Z,11.85
2023-03-29T08:36:07.509Z,11.79
2023-03-29T08:37:07.486Z,11.81
2023-03-29T08:38:07.519Z,11.85
2023-03-29T08:39:07.504Z,11.88
2023-03-29T08:40:07.543Z,12.02
2023-03-29T08:41:07.521Z,12.12
2023-03-29T08:42:07.527Z,12.29
2023-03-29T08:43:07.523Z,12.30
2023-03-29T08:44:07.534Z,12.31
2023-03-29T08:45:07.536Z,12.47
2023-03-29T08:46:07.590Z,12.69
2023-03-29T08:47:07.517Z,12.85
2023-03-29T08:48:07.573Z,13.14
2023-03-29T08:49:07.551Z,13.31
2023-03-29T08:50:07.518Z,13.24
2023-03-29T08:51:09.825Z,13.02
2023-03-29T08:52:07.582Z,13.05
2023-03-29T08:53:07.541Z,13.12
2023-03-29T08:54:07.549Z,13.21
2023-03-29T08:55:07.602Z,13.25
2023-03-29T08:56:07.563Z,13.15
2023-03-29T08:57:07.628Z,13.40
2023-03-29T08:59:07.552Z,13.45
2023-03-29T09:00:07.599Z,13.54
2023-03-29T09:01:07.585Z,13.71
2023-03-29T09:02:07.620Z,13.89
2023-03-29T09:03:07.700Z,13.74
2023-03-29T09:04:07.580Z,13.77
2023-03-29T09:05:07.538Z,13.87
2023-03-29T09:06:07.558Z,13.93
2023-03-29T09:07:07.576Z,13.83
2023-03-29T09:08:07.564Z,13.71
2023-03-29T09:09:07.556Z,13.53
2023-03-29T09:10:07.602Z,13.65
2023-03-29T09:11:07.570Z,13.53
2023-03-29T09:12:07.589Z,13.57
2023-03-29T09:13:07.630Z,13.45
2023-03-29T09:14:07.599Z,13.56
2023-03-29T09:15:07.610Z,13.72
2023-03-29T09:16:07.692Z,13.65
2023-03-29T09:17:07.611Z,13.68
2023-03-29T09:18:07.650Z,13.79
2023-03-29T09:19:07.626Z,13.74
2023-03-29T09:20:07.584Z,13.77
2023-03-29T09:21:07.617Z,13.54
2023-03-29T09:22:07.592Z,13.68
2023-03-29T09:23:07.651Z,13.75
2023-03-29T09:24:07.621Z,13.84
2023-03-29T09:25:07.593Z,13.85
2023-03-29T09:26:07.614Z,13.77
2023-03-29T09:27:07.613Z,13.75
2023-03-29T09:28:07.648Z,13.70
2023-03-29T09:29:09.538Z,13.75
2023-03-29T09:30:07.608Z,13.91
2023-03-29T09:31:07.799Z,13.74
2023-03-29T09:32:07.750Z,13.78
2023-03-29T09:33:07.671Z,13.66
2023-03-29T09:34:07.596Z,13.60
2023-03-29T09:35:07.638Z,13.39
2023-03-29T09:36:07.639Z,13.46
2023-03-29T09:37:07.632Z,13.33
2023-03-29T09:38:07.622Z,13.26
2023-03-29T09:39:07.630Z,13.12
2023-03-29T09:41:07.662Z,13.16
2023-03-29T09:42:07.675Z,13.29
2023-03-29T09:43:07.703Z,13.43
2023-03-29T09:44:10.759Z,13.60
2023-03-29T09:45:07.662Z,13.63
2023-03-29T09:46:07.794Z,13.69
2023-03-29T09:47:07.681Z,13.64
2023-03-29T09:48:07.746Z,13.61
2023-03-29T09:49:07.696Z,13.58
2023-03-29T09:50:16.665Z,13.47
2023-03-29T09:51:07.718Z,13.40
2023-03-29T09:52:07.692Z,13.46
2023-03-29T09:53:07.701Z,13.29
2023-03-29T09:54:07.807Z,13.19
2023-03-29T09:56:07.734Z,13.26
2023-03-29T09:57:07.745Z,13.35
2023-03-29T10:00:07.723Z,13.38
2023-03-29T10:01:07.760Z,13.35
2023-03-29T10:02:07.719Z,13.40
2023-03-29T10:03:10.147Z,13.53
2023-03-29T10:04:07.839Z,13.57
2023-03-29T10:05:07.780Z,13.75
2023-03-29T10:06:07.712Z,13.69
2023-03-29T10:07:07.708Z,13.71
2023-03-29T10:08:07.726Z,13.68
2023-03-29T10:09:07.748Z,13.71
2023-03-29T10:10:07.719Z,13.85
2023-03-29T10:11:07.716Z,13.92
2023-03-29T10:12:07.712Z,14.14
2023-03-29T10:13:07.756Z,14.34
2023-03-29T10:14:07.793Z,14.28
2023-03-29T10:15:11.795Z,14.37
2023-03-29T10:16:07.843Z,14.58
2023-03-29T10:17:07.739Z,14.61
2023-03-29T10:18:07.800Z,14.73
2023-03-29T10:19:07.796Z,14.69
2023-03-29T10:20:09.605Z,14.64
2023-03-29T10:21:07.771Z,14.70
2023-03-29T10:22:07.736Z,14.85
2023-03-29T10:23:07.774Z,15.03
2023-03-29T10:24:07.784Z,15.11
2023-03-29T10:25:07.743Z,15.13
2023-03-29T10:26:07.780Z,15.18
2023-03-29T10:27:07.796Z,15.17
2023-03-29T10:28:07.766Z,15.10
2023-03-29T10:29:07.788Z,14.92
2023-03-29T10:30:07.820Z,14.94
2023-03-29T10:31:07.786Z,14.82
2023-03-29T10:32:07.811Z,14.73
2023-03-29T10:33:07.895Z,14.65
2023-03-29T10:34:07.783Z,14.70
2023-03-29T10:35:07.800Z,14.76
2023-03-29T10:36:07.868Z,14.75
2023-03-29T10:37:07.833Z,14.89
2023-03-29T10:38:07.862Z,14.90
2023-03-29T10:39:07.784Z,14.99
2023-03-29T10:40:07.779Z,15.17
2023-03-29T10:41:07.795Z,15.36
2023-03-29T10:43:07.834Z,15.53
2023-03-29T10:44:07.848Z,15.70
2023-03-29T10:45:07.813Z,15.90
2023-03-29T10:46:07.907Z,16.07
2023-03-29T10:47:07.863Z,16.22
2023-03-29T10:48:07.937Z,16.21
2023-03-29T10:49:07.808Z,16.12
2023-03-29T10:50:07.835Z,16.23
2023-03-29T10:51:07.837Z,16.42
2023-03-29T10:52:07.875Z,16.50
2023-03-29T10:53:07.897Z,16.58
2023-03-29T10:54:07.841Z,16.45
2023-03-29T10:55:07.840Z,16.62
2023-03-29T10:56:07.875Z,16.78
2023-03-29T10:57:07.880Z,16.89
2023-03-29T10:58:07.859Z,16.96
2023-03-29T10:59:07.854Z,16.83
2023-03-29T11:00:07.846Z,16.68
2023-03-29T11:01:07.910Z,16.70
2023-03-29T11:02:07.949Z,16.78
2023-03-29T11:03:08.020Z,16.88
2023-03-29T11:04:07.975Z,16.89
2023-03-29T11:05:07.861Z,16.92
2023-03-29T11:06:07.890Z,16.88
2023-03-29T11:07:07.898Z,16.79
2023-03-29T11:08:07.864Z,16.61
2023-03-29T11:09:07.876Z,16.52
2023-03-29T11:10:07.903Z,16.36
2023-03-29T11:11:07.871Z,16.12
2023-03-29T11:12:15.522Z,16.00
2023-03-29T11:13:07.889Z,15.99
2023-03-29T11:14:07.910Z,16.01
2023-03-29T11:15:07.936Z,15.87
2023-03-29T11:16:07.927Z,15.78
2023-03-29T11:17:07.879Z,15.87
2023-03-29T11:18:07.931Z,16.00
2023-03-29T11:19:07.898Z,16.11
2023-03-29T11:20:07.960Z,16.24
2023-03-29T11:21:10.656Z,16.27
2023-03-29T11:22:07.882Z,16.43
2023-03-29T11:23:07.892Z,16.59
2023-03-29T11:24:07.922Z,16.84
2023-03-29T11:25:07.968Z,17.11
2023-03-29T11:26:07.916Z,17.37
2023-03-29T11:27:07.930Z,17.65
2023-03-29T11:28:07.938Z,17.89
2023-03-29T11:29:07.919Z,18.11
2023-03-29T11:30:07.954Z,18.27
2023-03-29T11:31:08.006Z,18.41
2023-03-29T11:32:07.938Z,18.53
2023-03-29T11:33:07.933Z,18.67
2023-03-29T11:34:07.924Z,18.68
2023-03-29T11:35:07.949Z,18.71
2023-03-29T11:36:07.990Z,18.70
2023-03-29T11:37:07.937Z,18.80
2023-03-29T11:38:07.966Z,18.86
2023-03-29T11:39:07.937Z,18.90
2023-03-29T11:40:07.978Z,18.97
2023-03-29T11:41:07.940Z,19.13
2023-03-29T11:42:07.983Z,19.20
2023-03-29T11:43:07.941Z,19.24
2023-03-29T11:44:07.952Z,19.17
2023-03-29T11:45:07.947Z,19.08
2023-03-29T11:46:08.029Z,19.11
2023-03-29T11:47:07.973Z,18.97
2023-03-29T11:48:08.038Z,18.98
2023-03-29T11:49:07.979Z,18.84
2023-03-29T11:50:07.967Z,18.75
2023-03-29T11:51:07.972Z,18.88
2023-03-29T11:52:07.978Z,18.99
2023-03-29T11:53:08.023Z,18.96
2023-03-29T11:54:08.021Z,18.77
2023-03-29T11:55:07.995Z,18.74
2023-03-29T11:57:08.042Z,18.60
2023-03-29T11:58:08.019Z,18.43
2023-03-29T11:59:07.993Z,18.37
2023-03-29T12:00:07.985Z,18.13
2023-03-29T12:01:08.050Z,18.11
2023-03-29T12:02:08.019Z,17.96
2023-03-29T12:03:08.209Z,18.01
2023-03-29T12:04:08.061Z,18.08
2023-03-29T12:05:08.037Z,18.04
2023-03-29T12:06:08.008Z,17.93
2023-03-29T12:07:08.043Z,17.84
2023-03-29T12:08:08.041Z,17.99
2023-03-29T12:09:08.006Z,18.03
2023-03-29T12:10:08.051Z,18.07
2023-03-29T12:11:08.050Z,18.01
2023-03-29T12:12:08.015Z,17.95
2023-03-29T12:13:08.005Z,17.77
2023-03-29T12:14:08.023Z,17.67
2023-03-29T12:15:08.041Z,17.55
2023-03-29T12:16:08.089Z,17.45
2023-03-29T12:17:08.064Z,17.42
2023-03-29T12:18:08.102Z,17.28
2023-03-29T12:19:08.052Z,17.16
2023-03-29T12:20:08.116Z,17.18
2023-03-29T12:21:08.181Z,17.16
2023-03-29T12:22:08.059Z,17.23
2023-03-29T12:23:08.081Z,17.20
2023-03-29T12:24:08.061Z,17.18
2023-03-29T12:25:09.714Z,17.17
2023-03-29T12:26:08.099Z,17.05
2023-03-29T12:27:08.059Z,16.95
2023-03-29T12:28:08.061Z,16.99
2023-03-29T12:29:08.103Z,16.83
2023-03-29T12:30:08.118Z,16.78
2023-03-29T12:31:08.097Z,16.79
2023-03-29T12:32:08.132Z,16.67
2023-03-29T12:33:08.154Z,16.48
2023-03-29T12:34:08.083Z,16.30
2023-03-29T12:35:08.067Z,16.29
2023-03-29T12:36:08.121Z,16.42
2023-03-29T12:37:08.166Z,16.51
2023-03-29T12:38:08.093Z,16.49
2023-03-29T12:39:08.107Z,16.58
2023-03-29T12:40:08.196Z,16.69
2023-03-29T12:41:08.118Z,16.67
2023-03-29T12:42:08.210Z,16.79
2023-03-29T12:43:08.090Z,16.90
2023-03-29T12:44:10.662Z,16.96
2023-03-29T12:45:08.142Z,17.05
2023-03-29T12:46:08.278Z,17.13
2023-03-29T12:47:08.114Z,17.06
2023-03-29T12:48:08.190Z,16.99
2023-03-29T12:49:08.136Z,17.03
2023-03-29T12:50:08.265Z,17.08
2023-03-29T12:51:08.145Z,17.18
2023-03-29T12:52:08.119Z,17.22
2023-03-29T12:53:08.179Z,17.38
2023-03-29T12:54:08.175Z,17.51
2023-03-29T12:55:08.171Z,17.64
2023-03-29T12:56:08.168Z,17.54
2023-03-29T12:57:08.167Z,17.59
2023-03-29T12:58:08.181Z,17.58
2023-03-29T12:59:08.196Z,17.67
2023-03-29T13:00:08.200Z,17.73
2023-03-29T13:01:08.268Z,17.88
2023-03-29T13:02:08.213Z,18.07
2023-03-29T13:03:08.236Z,18.19
2023-03-29T13:04:08.186Z,18.31
2023-03-29T13:05:08.234Z,18.47
2023-03-29T13:06:08.151Z,18.64
2023-03-29T13:07:08.160Z,18.63
2023-03-29T13:08:08.222Z,18.58
2023-03-29T13:09:08.164Z,18.66
2023-03-29T13:10:08.296Z,18.52
2023-03-29T13:11:08.194Z,18.45
2023-03-29T13:12:08.202Z,18.18
2023-03-29T13:13:08.178Z,18.10
2023-03-29T13:14:08.182Z,18.15
2023-03-29T13:15:08.203Z,17.81
2023-03-29T13:16:08.277Z,17.75
2023-03-29T13:17:18.467Z,17.73
2023-03-29T13:18:10.956Z,17.68
2023-03-29T13:19:08.229Z,17.66
2023-03-29T13:20:08.216Z,17.40
2023-03-29T13:21:08.261Z,17.32
2023-03-29T13:22:08.247Z,17.29
2023-03-29T13:23:08.225Z,17.27
2023-03-29T13:24:08.239Z,17.29
2023-03-29T13:25:08.220Z,17.36
2023-03-29T13:26:08.208Z,17.32
2023-03-29T13:27:08.304Z,17.10
2023-03-29T13:28:08.212Z,17.16
2023-03-29T13:29:08.266Z,17.22
2023-03-29T13:30:08.258Z,17.10
2023-03-29T13:31:08.320Z,17.04
2023-03-29T13:32:08.228Z,16.97
2023-03-29T13:33:08.338Z,16.79
2023-03-29T13:34:08.303Z,16.84
2023-03-29T13:35:08.240Z,17.00
2023-03-29T13:36:08.385Z,17.04
2023-03-29T13:38:08.296Z,17.18
2023-03-29T13:39:08.327Z,17.28
2023-03-29T13:40:08.285Z,17.34
2023-03-29T13:41:08.246Z,17.22
2023-03-29T13:42:08.249Z,17.27
2023-03-29T13:43:08.255Z,17.21
2023-03-29T13:44:08.776Z,17.26
2023-03-29T13:45:08.268Z,17.31
2023-03-29T13:46:08.360Z,17.29
2023-03-29T13:47:08.289Z,17.14
2023-03-29T13:48:08.341Z,17.17
2023-03-29T13:49:08.357Z,17.30
2023-03-29T13:50:08.335Z,17.38
2023-03-29T13:51:08.375Z,17.32
2023-03-29T13:52:08.337Z,17.35
2023-03-29T13:53:08.300Z,17.46
2023-03-29T13:54:08.354Z,17.38